Outwell, United Kingdom
Current Conditions -  °F | °C
As of 12:50 AM on Monday 24 Nov 2014 (Local Time) from EGYM Reporting Station
Clear Clear  
Wind Chill: 36°   Ceiling: Unl
Heat Index: 36°   Visibility: 6mi
Dew Point: 36°   Wind: 1mph
Humidity: 100%   Direction: 250°WSW
Pressure: 30.15"   Gusts: NA
Location:  52.61°N, 0.23°E
Report Text: EGYM 240050Z AUTO 25001KT 9999 NCD 02/02 Q1021
Loading
Personal Weather Stations






























Interactive Weather Map New forecast layout! Learn more

10-Day Weather Forecast

Advertisements
Track Severe Weather on mobile